createdAt,value
2022-09-07T00:00:55.841Z,2.20
2022-09-07T00:03:47.027Z,2.10
2022-09-07T00:06:38.380Z,2.50
2022-09-07T00:09:29.344Z,2.10
2022-09-07T00:12:20.855Z,2.50
2022-09-07T00:15:12.907Z,2.20
2022-09-07T00:18:05.800Z,2.33
2022-09-07T00:21:00.357Z,2.83
2022-09-07T00:23:57.163Z,2.40
2022-09-07T00:26:48.654Z,2.10
2022-09-07T00:29:40.240Z,2.73
2022-09-07T00:32:31.315Z,2.50
2022-09-07T00:35:23.975Z,2.20
2022-09-07T00:38:15.420Z,2.37
2022-09-07T00:41:06.913Z,2.30
2022-09-07T00:43:59.225Z,2.50
2022-09-07T00:46:50.524Z,2.70
2022-09-07T00:49:42.029Z,2.40
2022-09-07T00:52:35.472Z,2.40
2022-09-07T00:55:27.699Z,2.40
2022-09-07T00:58:19.660Z,2.27
2022-09-07T01:01:11.407Z,2.10
2022-09-07T01:04:03.489Z,2.43
2022-09-07T01:06:55.052Z,2.77
2022-09-07T01:09:48.213Z,2.37
2022-09-07T01:12:39.759Z,2.40
2022-09-07T01:15:37.030Z,2.20
2022-09-07T01:18:30.202Z,2.30
2022-09-07T01:21:23.277Z,2.43
2022-09-07T01:24:32.747Z,2.40
2022-09-07T01:27:42.965Z,3.10
2022-09-07T01:30:37.739Z,2.10
2022-09-07T01:33:41.969Z,2.43
2022-09-07T01:36:34.849Z,2.67
2022-09-07T01:39:30.685Z,2.23
2022-09-07T01:42:24.529Z,2.50
2022-09-07T01:45:17.955Z,2.13
2022-09-07T01:48:12.082Z,2.20
2022-09-07T01:51:04.755Z,2.27
2022-09-07T01:53:57.830Z,2.33
2022-09-07T01:56:50.541Z,2.57
2022-09-07T01:59:44.904Z,2.47
2022-09-07T02:02:40.659Z,2.70
2022-09-07T02:05:35.829Z,2.37
2022-09-07T02:08:29.023Z,2.40
2022-09-07T02:11:21.460Z,2.67
2022-09-07T02:14:15.476Z,2.50
2022-09-07T02:17:09.311Z,2.50
2022-09-07T02:20:04.899Z,2.70
2022-09-07T02:22:59.017Z,2.50
2022-09-07T02:25:53.755Z,2.50
2022-09-07T02:28:45.164Z,2.67
2022-09-07T02:31:36.830Z,2.40
2022-09-07T02:34:28.146Z,2.33
2022-09-07T02:37:20.303Z,2.60
2022-09-07T02:40:14.803Z,2.50
2022-09-07T02:43:07.617Z,2.60
2022-09-07T02:46:06.097Z,2.40
2022-09-07T02:49:01.091Z,2.77
2022-09-07T02:51:56.969Z,3.23
2022-09-07T02:54:54.899Z,2.80
2022-09-07T02:57:50.723Z,2.70
2022-09-07T03:00:45.087Z,2.10
2022-09-07T03:03:40.556Z,2.50
2022-09-07T03:06:35.176Z,2.47
2022-09-07T03:09:28.984Z,2.77
2022-09-07T03:12:20.518Z,3.00
2022-09-07T03:15:13.893Z,2.63
2022-09-07T03:18:05.329Z,3.07
2022-09-07T03:20:56.762Z,2.57
2022-09-07T03:23:51.725Z,2.90
2022-09-07T03:26:44.720Z,2.77
2022-09-07T03:29:40.186Z,2.50
2022-09-07T03:32:35.276Z,2.97
2022-09-07T03:35:26.835Z,2.50
2022-09-07T03:38:18.208Z,3.00
2022-09-07T03:41:09.646Z,2.90
2022-09-07T03:44:03.265Z,2.67
2022-09-07T03:46:54.470Z,2.40
2022-09-07T03:49:46.958Z,2.90
2022-09-07T03:52:38.628Z,2.83
2022-09-07T03:55:29.889Z,2.80
2022-09-07T03:58:21.176Z,2.70
2022-09-07T04:01:13.481Z,2.77
2022-09-07T04:04:04.677Z,3.00
2022-09-07T04:06:57.381Z,2.77
2022-09-07T04:09:51.325Z,3.03
2022-09-07T04:12:44.297Z,2.67
2022-09-07T04:15:35.838Z,3.10
2022-09-07T04:18:27.521Z,3.23
2022-09-07T04:21:19.032Z,3.47
2022-09-07T04:24:11.593Z,3.03
2022-09-07T04:27:03.229Z,2.83
2022-09-07T04:29:54.425Z,3.30
2022-09-07T04:32:47.061Z,2.80
2022-09-07T04:35:38.361Z,2.73
2022-09-07T04:38:30.156Z,3.00
2022-09-07T04:41:22.992Z,3.33
2022-09-07T04:44:16.981Z,3.13
2022-09-07T04:47:08.722Z,3.17
2022-09-07T04:50:00.246Z,3.30
2022-09-07T04:52:51.502Z,3.70
2022-09-07T04:55:42.575Z,3.63
2022-09-07T04:58:35.039Z,3.20
2022-09-07T05:01:26.547Z,3.67
2022-09-07T05:04:17.881Z,3.23
2022-09-07T05:07:09.130Z,3.60
2022-09-07T05:10:00.605Z,3.30
2022-09-07T05:12:52.433Z,3.50
2022-09-07T05:15:44.975Z,3.73
2022-09-07T05:18:36.169Z,3.23
2022-09-07T05:21:28.070Z,3.27
2022-09-07T05:24:19.433Z,3.37
2022-09-07T05:27:10.633Z,3.33
2022-09-07T05:30:03.458Z,3.23
2022-09-07T05:32:56.957Z,3.27
2022-09-07T05:35:56.667Z,3.27
2022-09-07T05:38:48.103Z,3.27
2022-09-07T05:41:39.454Z,3.27
2022-09-07T05:44:47.422Z,3.00
2022-09-07T05:47:39.444Z,3.47
2022-09-07T05:50:31.983Z,3.73
2022-09-07T05:53:23.181Z,3.73
2022-09-07T05:56:14.791Z,3.70
2022-09-07T05:59:08.426Z,3.50
2022-09-07T06:01:59.980Z,3.87
2022-09-07T06:04:51.269Z,3.60
2022-09-07T06:07:43.807Z,3.50
2022-09-07T06:13:34.401Z,4.00
2022-09-07T06:16:25.746Z,3.90
2022-09-07T06:19:16.926Z,3.83
2022-09-07T06:22:08.251Z,3.63
2022-09-07T06:25:00.900Z,4.13
2022-09-07T06:27:54.074Z,3.60
2022-09-07T06:30:46.536Z,4.23
2022-09-07T06:33:38.133Z,3.93
2022-09-07T06:36:29.673Z,3.67
2022-09-07T06:39:21.010Z,3.73
2022-09-07T06:42:13.594Z,4.17
2022-09-07T06:45:05.338Z,4.23
2022-09-07T06:47:57.250Z,4.43
2022-09-07T06:50:55.999Z,4.07
2022-09-07T06:53:48.366Z,3.93
2022-09-07T06:56:39.870Z,3.87
2022-09-07T06:59:32.571Z,4.13
2022-09-07T07:02:24.084Z,4.47
2022-09-07T07:05:15.717Z,4.70
2022-09-07T07:08:06.947Z,4.43
2022-09-07T07:11:02.243Z,3.83
2022-09-07T07:13:54.285Z,5.50
2022-09-07T07:16:46.837Z,4.40
2022-09-07T07:19:38.609Z,4.57
2022-09-07T07:22:46.259Z,5.13
2022-09-07T07:25:38.790Z,4.47
2022-09-07T07:31:41.447Z,4.63
2022-09-07T07:34:33.911Z,4.53
2022-09-07T07:37:28.161Z,4.90
2022-09-07T07:40:23.455Z,4.77
2022-09-07T07:43:16.831Z,4.70
2022-09-07T07:46:08.201Z,4.13
2022-09-07T07:48:59.891Z,5.03
2022-09-07T07:55:42.878Z,4.17
2022-09-07T07:58:17.554Z,5.40
2022-09-07T08:01:10.229Z,4.63
2022-09-07T08:04:01.885Z,22.03
2022-09-07T08:06:54.273Z,6.50
2022-09-07T08:09:46.112Z,6.30
2022-09-07T08:12:37.170Z,5.27
2022-09-07T08:15:27.976Z,5.17
2022-09-07T08:18:19.250Z,5.33
2022-09-07T08:21:12.385Z,5.57
2022-09-07T08:24:05.231Z,5.27
2022-09-07T08:26:56.384Z,5.07
2022-09-07T08:29:47.525Z,5.27
2022-09-07T08:32:39.132Z,5.43
2022-09-07T08:35:30.221Z,5.60
2022-09-07T08:38:21.371Z,7.03
2022-09-07T08:41:30.757Z,6.13
2022-09-07T08:44:23.164Z,6.03
2022-09-07T08:47:21.718Z,5.40
2022-09-07T08:50:15.829Z,6.47
2022-09-07T08:53:09.384Z,5.63
2022-09-07T08:56:02.712Z,5.37
2022-09-07T08:58:55.342Z,5.80
2022-09-07T09:02:27.144Z,5.40
2022-09-07T09:08:15.767Z,6.67
2022-09-07T09:11:10.500Z,7.17
2022-09-07T09:14:06.777Z,6.07
2022-09-07T09:16:59.567Z,5.67
2022-09-07T09:19:55.789Z,5.10
2022-09-07T09:22:47.219Z,6.07
2022-09-07T09:25:40.028Z,6.07
2022-09-07T09:28:32.428Z,5.57
2022-09-07T09:31:26.888Z,6.70
2022-09-07T09:34:21.184Z,6.07
2022-09-07T09:37:14.865Z,5.60
2022-09-07T09:40:07.299Z,5.70
2022-09-07T09:42:59.673Z,5.87
2022-09-07T09:49:07.086Z,5.53
2022-09-07T09:55:33.979Z,5.87
2022-09-07T10:04:56.279Z,6.37
2022-09-07T10:07:51.943Z,6.27
2022-09-07T10:10:51.361Z,5.53
2022-09-07T10:13:46.903Z,6.17
2022-09-07T10:16:40.283Z,5.77
2022-09-07T10:19:34.511Z,5.73
2022-09-07T10:22:33.081Z,8.07
2022-09-07T10:25:28.992Z,5.90
2022-09-07T10:28:21.178Z,5.40
2022-09-07T10:31:16.240Z,5.83
2022-09-07T10:37:26.716Z,6.17
2022-09-07T10:40:25.087Z,6.83
2022-09-07T10:43:23.712Z,6.87
2022-09-07T10:49:37.267Z,7.13
2022-09-07T10:52:34.013Z,8.73
2022-09-07T10:55:31.351Z,8.07
2022-09-07T10:59:01.439Z,7.60
2022-09-07T11:01:48.173Z,6.73
2022-09-07T11:04:46.896Z,7.43
2022-09-07T11:07:45.751Z,6.97
2022-09-07T11:10:43.199Z,7.37
2022-09-07T11:13:50.238Z,8.07
2022-09-07T11:16:54.087Z,8.47
2022-09-07T11:19:48.549Z,8.03
2022-09-07T11:22:43.651Z,7.17
2022-09-07T11:25:36.229Z,6.77
2022-09-07T11:28:31.893Z,7.03
2022-09-07T11:31:24.822Z,7.30
2022-09-07T11:34:26.087Z,6.60
2022-09-07T11:37:32.276Z,6.33
2022-09-07T11:40:26.431Z,6.57
2022-09-07T11:43:21.082Z,7.07
2022-09-07T11:46:15.933Z,6.63
2022-09-07T11:49:08.782Z,9.40
2022-09-07T11:52:05.907Z,11.57
2022-09-07T11:54:58.931Z,7.68
2022-09-07T11:58:02.594Z,7.57
2022-09-07T12:00:57.031Z,7.22
2022-09-07T12:03:57.482Z,6.97
2022-09-07T12:06:57.838Z,7.50
2022-09-07T12:10:00.576Z,8.30
2022-09-07T12:12:58.807Z,8.30
2022-09-07T12:15:54.011Z,7.75
2022-09-07T12:18:56.927Z,7.90
2022-09-07T12:21:55.600Z,8.07
2022-09-07T12:24:53.760Z,7.90
2022-09-07T12:27:45.387Z,7.88
2022-09-07T12:30:47.073Z,9.50
2022-09-07T12:33:38.935Z,8.60
2022-09-07T12:36:49.427Z,8.55
2022-09-07T12:39:44.250Z,7.63
2022-09-07T12:42:37.494Z,7.90
2022-09-07T12:45:49.718Z,7.38
2022-09-07T12:48:49.138Z,8.88
2022-09-07T12:55:23.595Z,8.60
2022-09-07T12:58:19.134Z,7.88
2022-09-07T13:01:18.274Z,8.00
2022-09-07T13:04:15.386Z,8.03
2022-09-07T13:07:29.233Z,7.60
2022-09-07T13:10:33.461Z,7.23
2022-09-07T13:20:07.743Z,11.30
2022-09-07T13:23:10.040Z,15.53
2022-09-07T13:26:05.393Z,13.03
2022-09-07T13:29:00.282Z,13.67
2022-09-07T13:31:57.721Z,14.33
2022-09-07T13:34:50.236Z,10.90
2022-09-07T13:37:46.299Z,10.83
2022-09-07T13:40:40.234Z,7.88
2022-09-07T13:43:33.167Z,8.15
2022-09-07T13:46:33.028Z,8.18
2022-09-07T13:49:33.520Z,8.65
2022-09-07T13:52:31.287Z,8.63
2022-09-07T13:55:26.626Z,7.75
2022-09-07T13:58:19.050Z,8.52
2022-09-07T14:01:18.559Z,8.18
2022-09-07T14:04:18.572Z,10.15
2022-09-07T14:07:14.699Z,8.43
2022-09-07T14:10:07.141Z,8.32
2022-09-07T14:13:06.365Z,8.30
2022-09-07T14:15:57.966Z,11.47
2022-09-07T14:18:50.766Z,24.10
2022-09-07T14:22:01.410Z,8.50
2022-09-07T14:24:55.360Z,7.30
2022-09-07T14:27:47.311Z,7.57
2022-09-07T14:30:38.462Z,8.00
2022-09-07T14:33:30.445Z,7.17
2022-09-07T14:36:45.419Z,8.57
2022-09-07T14:39:39.395Z,9.33
2022-09-07T14:42:31.988Z,14.60
2022-09-07T14:45:33.837Z,14.70
2022-09-07T14:48:32.346Z,11.40
2022-09-07T14:51:35.195Z,14.17
2022-09-07T14:54:28.850Z,11.70
2022-09-07T14:57:30.663Z,9.93
2022-09-07T15:00:29.457Z,10.03
2022-09-07T15:03:31.753Z,15.87
2022-09-07T15:07:03.310Z,15.23
2022-09-07T15:09:56.189Z,9.80
2022-09-07T15:12:47.610Z,7.47
2022-09-07T15:15:39.651Z,9.40
2022-09-07T15:18:55.735Z,8.50
2022-09-07T15:21:47.404Z,8.07
2022-09-07T15:24:38.636Z,8.47
2022-09-07T15:27:31.215Z,8.17
2022-09-07T15:30:23.001Z,8.07
2022-09-07T15:33:14.478Z,7.57
2022-09-07T15:36:06.994Z,7.97
2022-09-07T15:39:00.108Z,8.00
2022-09-07T15:41:52.369Z,8.30
2022-09-07T15:44:45.464Z,9.70
2022-09-07T15:47:47.989Z,7.93
2022-09-07T15:50:42.313Z,7.33
2022-09-07T15:57:48.410Z,7.10
2022-09-07T15:59:59.107Z,10.77
2022-09-07T16:03:06.851Z,8.23
2022-09-07T16:05:58.692Z,7.50
2022-09-07T16:08:51.453Z,7.40
2022-09-07T16:11:42.829Z,7.80
2022-09-07T16:14:35.014Z,7.53
2022-09-07T16:17:35.603Z,7.53
2022-09-07T16:20:32.591Z,8.30
2022-09-07T16:23:23.656Z,8.13
2022-09-07T16:26:15.232Z,12.73
2022-09-07T16:29:06.695Z,20.57
2022-09-07T16:35:10.698Z,13.50
2022-09-07T16:41:15.153Z,16.13
2022-09-07T16:44:06.073Z,14.67
2022-09-07T16:46:57.380Z,13.67
2022-09-07T16:49:48.850Z,12.30
2022-09-07T16:52:41.643Z,13.10
2022-09-07T16:55:33.161Z,18.07
2022-09-07T16:58:39.958Z,13.33
2022-09-07T17:01:32.198Z,13.43
2022-09-07T17:04:24.210Z,9.63
2022-09-07T17:07:15.393Z,8.30
2022-09-07T17:10:08.516Z,10.57
2022-09-07T17:13:00.006Z,8.33
2022-09-07T17:15:51.261Z,8.40
2022-09-07T17:21:55.416Z,7.90
2022-09-07T17:24:48.658Z,7.13
2022-09-07T17:27:41.394Z,7.40
2022-09-07T17:30:35.509Z,7.50
2022-09-07T17:33:26.501Z,7.93
2022-09-07T17:36:18.347Z,7.90
2022-09-07T17:39:18.501Z,7.17
2022-09-07T17:42:10.294Z,7.60
2022-09-07T17:45:04.338Z,8.03
2022-09-07T17:47:55.819Z,7.80
2022-09-07T17:50:47.052Z,9.43
2022-09-07T17:53:39.198Z,7.57
2022-09-07T17:56:31.433Z,7.50
2022-09-07T18:02:35.802Z,8.27
2022-09-07T18:05:27.191Z,6.77
2022-09-07T18:08:18.503Z,6.83
2022-09-07T18:14:21.445Z,5.87
2022-09-07T18:17:12.648Z,6.10
2022-09-07T18:20:05.542Z,5.83
2022-09-07T18:22:57.785Z,7.30
2022-09-07T18:25:56.713Z,7.40
2022-09-07T18:29:10.443Z,6.73
2022-09-07T18:32:02.510Z,6.87
2022-09-07T18:34:53.484Z,6.77
2022-09-07T18:37:46.078Z,6.00
2022-09-07T18:40:38.467Z,6.33
2022-09-07T18:43:31.389Z,6.60
2022-09-07T18:46:24.268Z,7.50
2022-09-07T18:49:16.190Z,6.47
2022-09-07T18:55:20.038Z,6.57
2022-09-07T18:58:10.968Z,6.67
2022-09-07T19:01:06.465Z,6.73
2022-09-07T19:03:58.281Z,7.30
2022-09-07T19:06:49.517Z,6.87
2022-09-07T19:09:40.865Z,7.80
2022-09-07T19:12:33.351Z,7.17
2022-09-07T19:15:24.771Z,7.10
2022-09-07T19:18:16.101Z,6.77
2022-09-07T19:21:07.935Z,7.07
2022-09-07T19:23:59.661Z,7.13
2022-09-07T19:26:50.828Z,7.33
2022-09-07T19:29:43.421Z,7.10
2022-09-07T19:32:34.646Z,7.53
2022-09-07T19:35:25.977Z,7.10
2022-09-07T19:38:17.908Z,7.87
2022-09-07T19:41:09.540Z,8.07
2022-09-07T19:44:00.873Z,7.57
2022-09-07T19:46:53.264Z,7.37
2022-09-07T19:49:44.536Z,7.40
2022-09-07T19:52:35.715Z,7.43
2022-09-07T19:55:27.503Z,8.43
2022-09-07T19:58:18.310Z,8.23
2022-09-07T20:01:11.278Z,7.97
2022-09-07T20:04:05.194Z,7.90
2022-09-07T20:06:56.657Z,9.37
2022-09-07T20:09:50.555Z,8.53
2022-09-07T20:12:41.726Z,7.63
2022-09-07T20:15:33.098Z,8.90
2022-09-07T20:18:24.483Z,7.63
2022-09-07T20:21:18.695Z,7.70
2022-09-07T20:24:11.790Z,7.10
2022-09-07T20:27:03.717Z,6.50
2022-09-07T20:29:54.963Z,6.73
2022-09-07T20:32:46.153Z,7.00
2022-09-07T20:35:37.605Z,7.10
2022-09-07T20:38:30.124Z,6.57
2022-09-07T20:41:22.257Z,6.70
2022-09-07T20:44:13.305Z,7.03
2022-09-07T20:47:04.856Z,6.50
2022-09-07T20:49:56.103Z,6.77
2022-09-07T20:52:47.349Z,6.93
2022-09-07T20:55:40.047Z,6.40
2022-09-07T20:58:31.520Z,6.70
2022-09-07T21:01:22.971Z,6.87
2022-09-07T21:04:14.068Z,6.87
2022-09-07T21:07:05.306Z,5.80
2022-09-07T21:09:56.465Z,5.87
2022-09-07T21:12:48.929Z,6.23
2022-09-07T21:15:40.596Z,5.63
2022-09-07T21:18:32.136Z,5.23
2022-09-07T21:21:23.120Z,5.87
2022-09-07T21:24:16.837Z,5.73
2022-09-07T21:27:08.511Z,5.17
2022-09-07T21:30:01.167Z,4.90
2022-09-07T21:32:52.812Z,6.13
2022-09-07T21:35:44.063Z,5.27
2022-09-07T21:38:35.748Z,5.03
2022-09-07T21:41:27.020Z,5.77
2022-09-07T21:44:18.356Z,5.60
2022-09-07T21:47:10.935Z,6.03
2022-09-07T21:50:02.158Z,5.67
2022-09-07T21:52:53.372Z,5.87
2022-09-07T21:55:44.572Z,4.97
2022-09-07T21:58:38.601Z,5.33
2022-09-07T22:01:30.621Z,5.03
2022-09-07T22:04:23.439Z,5.40
2022-09-07T22:07:14.648Z,5.47
2022-09-07T22:10:06.601Z,5.27
2022-09-07T22:12:57.917Z,5.20
2022-09-07T22:15:49.116Z,5.13
2022-09-07T22:18:43.174Z,5.60
2022-09-07T22:21:35.502Z,4.80
2022-09-07T22:24:26.943Z,5.37
2022-09-07T22:27:18.178Z,5.17
2022-09-07T22:30:11.498Z,4.70
2022-09-07T22:33:02.806Z,5.30
2022-09-07T22:35:54.113Z,5.70
2022-09-07T22:38:47.637Z,4.87
2022-09-07T22:41:39.577Z,5.80
2022-09-07T22:44:30.794Z,5.03
2022-09-07T22:47:22.142Z,5.00
2022-09-07T22:50:13.556Z,5.27
2022-09-07T22:53:04.771Z,5.10
2022-09-07T22:55:57.372Z,5.17
2022-09-07T22:58:49.326Z,4.77
2022-09-07T23:01:41.129Z,5.43
2022-09-07T23:04:32.385Z,5.00
2022-09-07T23:07:23.516Z,5.10
2022-09-07T23:10:14.837Z,5.90
2022-09-07T23:13:09.020Z,4.97
2022-09-07T23:16:03.945Z,4.50
2022-09-07T23:18:55.429Z,5.47
2022-09-07T23:21:46.927Z,5.30
2022-09-07T23:24:40.235Z,4.63
2022-09-07T23:27:31.654Z,5.10
2022-09-07T23:30:24.814Z,5.00
2022-09-07T23:33:15.977Z,4.97
2022-09-07T23:36:07.900Z,4.67
2022-09-07T23:39:00.155Z,4.57
2022-09-07T23:41:51.617Z,4.90
2022-09-07T23:44:45.217Z,4.27
2022-09-07T23:47:38.948Z,4.20
2022-09-07T23:50:30.215Z,5.53
2022-09-07T23:53:22.121Z,4.57
2022-09-07T23:56:13.238Z,4.00
2022-09-07T23:59:05.539Z,4.60
